METAR Data
IDs: Format: Raw Decoded Include TAF

Data at: 0227 UTC 12 May 2021

KRDK 120215Z AUTO 07006KT 10SM SCT150 OVC170 11/02 A3033 RMK AO2
KRDK 120155Z AUTO 07006KT 10SM FEW130 BKN150 BKN180 12/02 A3032 RMK AO2
KRDK 120135Z AUTO 08006KT 10SM FEW130 SCT150 13/02 A3032 RMK AO2
KRDK 120115Z AUTO 08006KT 10SM CLR 13/02 A3031 RMK AO2
KRDK 120055Z AUTO 08005KT 10SM CLR 13/02 A3031 RMK AO2
KRDK 120035Z AUTO 07006KT 10SM CLR 14/02 A3031 RMK AO2
KRDK 120015Z AUTO 09006KT 10SM CLR 14/02 A3030 RMK AO2
KRDK 112355Z AUTO 10009KT 10SM CLR 14/01 A3030 RMK AO2
KRDK 112335Z AUTO 07007KT 10SM CLR 15/01 A3030 RMK AO2
KRDK 112315Z AUTO 06008KT 10SM BKN065 14/02 A3030 RMK AO2
KRDK 112255Z AUTO 11008KT 10SM BKN065 15/02 A3029 RMK AO2
KRDK 112235Z AUTO 08006G11KT 10SM BKN060 15/01 A3029 RMK AO2
KRDK 112215Z AUTO 10009KT 10SM FEW070 16/01 A3029 RMK AO2
KRDK 112155Z AUTO 10010KT 10SM SCT065 15/01 A3029 RMK AO2
KRDK 112135Z AUTO 08009KT 10SM BKN065 16/01 A3029 RMK AO2
KRDK 112115Z AUTO 07008G15KT 050V110 10SM BKN060 BKN070 15/02 A3029 RMK AO2
KRDK 112055Z AUTO 09006KT 10SM BKN060 16/01 A3029 RMK AO2
KRDK 112035Z AUTO 06011KT 10SM SCT060 16/02 A3029 RMK AO2
KRDK 112015Z AUTO 06006G15KT 10SM CLR 15/02 A3029 RMK AO2
KRDK 111955Z AUTO 11009G15KT 10SM FEW060 16/02 A3029 RMK AO2
KRDK 111935Z AUTO 07012KT 10SM SCT060 16/03 A3029 RMK AO2
KRDK 111915Z AUTO 11010G17KT 080V140 10SM SCT060 15/02 A3029 RMK AO2
KRDK 111855Z AUTO 10011G20KT 10SM SCT060 15/02 A3029 RMK AO2
KRDK 111835Z AUTO 09011KT 10SM BKN060 15/02 A3029 RMK AO2
KRDK 111815Z AUTO 05013G20KT 10SM BKN060 15/02 A3030 RMK AO2
KRDK 111755Z AUTO 08012G19KT 040V110 10SM SCT060 15/03 A3029 RMK AO2
KRDK 111735Z AUTO 08011G18KT 10SM CLR 15/01 A3029 RMK AO2
KRDK 111715Z AUTO 08013G19KT 10SM FEW055 15/02 A3030 RMK AO2
KRDK 111655Z AUTO 08015KT 10SM FEW055 15/02 A3031 RMK AO2
KRDK 111635Z AUTO 08013KT 10SM CLR 15/01 A3032 RMK AO2
KRDK 111615Z AUTO 07011G17KT 030V090 10SM CLR 14/02 A3033 RMK AO2
KRDK 111555Z AUTO 04012G17KT 10SM CLR 14/03 A3034 RMK AO2
KRDK 111535Z AUTO 05010G16KT 10SM CLR 14/05 A3034 RMK AO2
KRDK 111515Z AUTO 05009KT 10SM CLR 13/06 A3034 RMK AO2
KRDK 111455Z AUTO 07009KT 10SM CLR 12/05 A3035 RMK AO2
KRDK 111435Z AUTO 06009KT 9SM CLR 11/05 A3035 RMK AO2
KRDK 111415Z AUTO 06007KT 10SM CLR 10/05 A3035 RMK AO2
KRDK 111355Z AUTO 05006KT 10SM CLR 10/05 A3034 RMK AO2
KRDK 111335Z AUTO 03007KT 10SM CLR 09/05 A3033 RMK AO2
KRDK 111315Z AUTO 03005KT 10SM CLR 08/05 A3033 RMK AO2
KRDK 111255Z AUTO 04005KT 10SM CLR 07/05 A3031 RMK AO2
KRDK 111235Z AUTO 02006KT 10SM CLR 07/05 A3030 RMK AO2
KRDK 111215Z AUTO 02007KT 10SM CLR 06/05 A3029 RMK AO2
KRDK 111155Z AUTO 04008KT 10SM CLR 06/04 A3029 RMK AO2
KRDK 111135Z AUTO 04007KT 10SM CLR 06/04 A3029 RMK AO2
KRDK 111115Z AUTO 10SM CLR 05/04 A3029 RMK AO2
KRDK 111055Z AUTO 04006KT 10SM FEW230 05/04 A3029 RMK AO2
KRDK 111035Z AUTO 05006KT 10SM FEW230 05/04 A3028 RMK AO2
KRDK 111015Z AUTO 04006KT 10SM CLR 05/04 A3027 RMK AO2
KRDK 110955Z AUTO 02004KT 10SM CLR 05/03 A3027 RMK AO2
KRDK 110935Z AUTO 00000KT 10SM CLR 05/04 A3026 RMK AO2
KRDK 110915Z AUTO 02007KT 10SM CLR 05/04 A3025 RMK AO2
KRDK 110855Z AUTO 02005KT 10SM CLR 06/04 A3025 RMK AO2
KRDK 110835Z AUTO 02005KT 10SM CLR 06/04 A3024 RMK AO2
KRDK 110815Z AUTO 01006KT 10SM FEW230 FEW250 07/04 A3025 RMK AO2
KRDK 110755Z AUTO 02005KT 10SM CLR 07/04 A3024 RMK AO2
KRDK 110735Z AUTO 03004KT 10SM CLR 08/04 A3024 RMK AO2
KRDK 110715Z AUTO 04007KT 10SM FEW190 FEW210 FEW230 08/04 A3024 RMK AO2
KRDK 110655Z AUTO 04007KT 10SM FEW170 SCT190 SCT210 09/04 A3024 RMK AO2
KRDK 110635Z AUTO 04008KT 10SM BKN170 BKN220 09/04 A3023 RMK AO2
KRDK 110615Z AUTO 04007KT 10SM FEW160 OVC180 09/05 A3023 RMK AO2
KRDK 110555Z AUTO 04009KT 10SM FEW160 OVC180 10/05 A3023 RMK AO2
KRDK 110535Z AUTO 04009KT 10SM SCT160 OVC180 10/05 A3022 RMK AO2
KRDK 110515Z AUTO 04009KT 10SM BKN160 OVC180 10/05 A3022 RMK AO2
KRDK 110455Z AUTO 04008KT 10SM OVC160 10/04 A3021 RMK AO2
KRDK 110435Z AUTO 04009KT 10SM SCT150 OVC170 10/03 A3022 RMK AO2
KRDK 110415Z AUTO 03008KT 10SM BKN160 OVC180 10/03 A3021 RMK AO2
KRDK 110355Z AUTO 01006KT 10SM SCT160 OVC180 08/04 A3021 RMK AO2
KRDK 110335Z AUTO 01003KT 10SM FEW160 BKN180 BKN200 09/03 A3020 RMK AO2
KRDK 110315Z AUTO 35004KT 10SM BKN160 OVC180 11/02 A3020 RMK AO2
KRDK 110255Z AUTO 35006KT 10SM SCT160 OVC180 11/03 A3018 RMK AO2
KRDK 110235Z AUTO 36006KT 10SM SCT170 OVC190 11/03 A3018 RMK AO2
KRDK 110215Z AUTO 03003KT 10SM OVC190 11/03 A3017 RMK AO2
KRDK 110155Z AUTO 35006KT 10SM BKN190 12/02 A3016 RMK AO2
KRDK 110135Z AUTO 34005KT 10SM FEW190 11/04 A3016 RMK AO2
KRDK 110115Z AUTO 34006KT 10SM CLR 14/01 A3015 RMK AO2
KRDK 110055Z AUTO 34005KT 10SM CLR 14/02 A3014 RMK AO2
KRDK 110035Z AUTO 36006KT 10SM CLR 14/03 A3014 RMK AO2
KRDK 110015Z AUTO 01009KT 10SM FEW080 15/03 A3014 RMK AO2
KRDK 102355Z AUTO 01010KT 10SM BKN080 16/03 A3014 RMK AO2
KRDK 102335Z AUTO 34007KT 10SM FEW080 16/01 A3013 RMK AO2
KRDK 102315Z AUTO 36008KT 10SM CLR 16/02 A3013 RMK AO2
KRDK 102255Z AUTO 01008KT 10SM CLR 16/02 A3013 RMK AO2
KRDK 102235Z AUTO 02008KT 10SM FEW065 16/03 A3013 RMK AO2
KRDK 102215Z AUTO 36011KT 10SM FEW065 16/02 A3013 RMK AO2
KRDK 102155Z AUTO 36008KT 10SM SCT070 17/03 A3013 RMK AO2
KRDK 102135Z AUTO 01012KT 8SM SCT065 BKN075 16/04 A3013 RMK AO2
KRDK 102115Z AUTO 34011KT 10SM FEW060 SCT070 17/03 A3013 RMK AO2
KRDK 102055Z AUTO 34009G28KT 310V040 10SM BKN060 BKN070 17/03 A3013 RMK AO2
KRDK 102035Z AUTO 01013KT 10SM SCT060 BKN070 17/04 A3014 RMK AO2
KRDK 102015Z AUTO 31010G16KT 10SM FEW060 FEW070 17/02 A3014 RMK AO2
KRDK 101955Z AUTO 33008KT 10SM SCT055 SCT065 BKN075 16/03 A3015 RMK AO2
KRDK 101935Z AUTO VRB07G12KT 10SM SCT050 BKN060 BKN070 16/04 A3015 RMK AO2
KRDK 101915Z AUTO VRB07G13KT 10SM FEW050 SCT070 16/04 A3016 RMK AO2
KRDK 101855Z AUTO 35007G14KT 10SM SCT060 SCT070 16/04 A3016 RMK AO2
KRDK 101835Z AUTO 29008G15KT 10SM FEW049 SCT060 SCT070 16/04 A3017 RMK AO2
KRDK 101815Z AUTO 31011KT 280V350 10SM SCT060 16/04 A3017 RMK AO2
KRDK 101755Z AUTO 34008KT 310V060 10SM FEW049 BKN065 15/04 A3018 RMK AO2
KRDK 101735Z AUTO VRB05G12KT 10SM SCT050 SCT070 15/03 A3019 RMK AO2
KRDK 101715Z AUTO 32006G13KT 10SM BKN049 15/03 A3019 RMK AO2
KRDK 101655Z AUTO 32008G14KT 10SM SCT046 15/03 A3019 RMK AO2
KRDK 101635Z AUTO 32008G13KT 10SM FEW045 15/04 A3018 RMK AO2
KRDK 101615Z AUTO 26010G16KT 10SM CLR 15/03 A3018 RMK AO2
KRDK 101555Z AUTO VRB05KT 10SM CLR 14/03 A3017 RMK AO2
KRDK 101535Z AUTO VRB05KT 10SM CLR 14/04 A3017 RMK AO2
KRDK 101515Z AUTO 31009KT 10SM CLR 14/05 A3017 RMK AO2
KRDK 101455Z AUTO VRB06G13KT 10SM CLR 13/05 A3018 RMK AO2
KRDK 101435Z AUTO 31010KT 10SM CLR 12/06 A3018 RMK AO2